Time;durP1;ratioP1;P1;durP2;ratioP2;P2;SDS_P1;SDS_P2;PMS_P1;PMS_P2;Temp;Humidity;BMP_temperature;BMP_pressure;BME280_temperature;BME280_humidity;BME280_pressure;Samples;Min_cycle;Max_cycle;Signal;HPM_P1;HPM_P2
2024/01/05 00:00:54;;;;;;;29.90;11.15;;;7.40;99.90;;;;;;4973394;28;20377;-79
2024/01/05 00:03:20;;;;;;;27.65;11.85;;;7.30;99.90;;;;;;4957725;28;20777;-81
2024/01/05 00:05:47;;;;;;;28.92;12.68;;;7.40;99.90;;;;;;4974237;28;20023;-80
2024/01/05 00:08:13;;;;;;;31.65;14.63;;;7.40;99.90;;;;;;4976285;28;20081;-80
2024/01/05 00:10:39;;;;;;;44.83;15.77;;;7.40;99.90;;;;;;4978254;28;20382;-80
2024/01/05 00:13:06;;;;;;;37.97;16.23;;;7.40;99.90;;;;;;4959211;28;20042;-80
2024/01/05 00:15:32;;;;;;;39.13;16.48;;;7.30;99.90;;;;;;4944909;28;20049;-78
2024/01/05 00:18:06;;;;;;;44.80;18.25;;;7.40;99.90;;;;;;4978188;28;20034;-80
2024/01/05 00:20:32;;;;;;;44.42;19.23;;;7.40;99.90;;;;;;4961126;28;20054;-77
2024/01/05 00:22:59;;;;;;;43.15;19.10;;;7.30;99.90;;;;;;4976893;28;20489;-78
2024/01/05 00:25:25;;;;;;;55.75;21.95;;;7.30;99.90;;;;;;4975750;28;20050;-78
2024/01/05 00:27:52;;;;;;;46.78;19.25;;;7.40;99.90;;;;;;4976687;28;20496;-77
2024/01/05 00:30:19;;;;;;;60.00;23.13;;;7.40;99.90;;;;;;4976037;28;20038;-78
2024/01/05 00:32:45;;;;;;;46.45;20.13;;;7.40;99.90;;;;;;4961440;28;20041;-79
2024/01/05 00:35:12;;;;;;;41.33;19.23;;;7.40;99.90;;;;;;4960586;28;20038;-79
2024/01/05 00:37:39;;;;;;;41.42;19.27;;;7.40;99.90;;;;;;4960606;28;20030;-80
2024/01/05 00:40:06;;;;;;;41.25;19.23;;;7.40;99.90;;;;;;4961140;28;20045;-79
2024/01/05 00:42:32;;;;;;;56.58;23.10;;;7.40;99.90;;;;;;4976084;28;20746;-79
2024/01/05 00:44:59;;;;;;;46.88;21.40;;;7.40;99.90;;;;;;4977605;28;20491;-79
2024/01/05 00:47:25;;;;;;;46.10;20.25;;;7.40;99.90;;;;;;4959710;28;20034;-78
2024/01/05 00:49:51;;;;;;;41.97;19.45;;;7.40;99.90;;;;;;4944503;28;20031;-80
2024/01/05 00:52:18;;;;;;;49.42;21.40;;;7.50;99.90;;;;;;4944786;28;20033;-79
2024/01/05 00:54:44;;;;;;;48.50;20.88;;;7.50;99.90;;;;;;4960291;28;20420;-79
2024/01/05 00:57:11;;;;;;;36.97;18.40;;;7.50;99.90;;;;;;4960135;28;20041;-78
2024/01/05 00:59:37;;;;;;;38.33;18.38;;;7.50;99.90;;;;;;4975505;28;20239;-78
2024/01/05 01:02:04;;;;;;;41.83;18.30;;;7.60;99.90;;;;;;4978675;28;20074;-79
2024/01/05 01:04:30;;;;;;;42.50;19.70;;;7.60;99.90;;;;;;4977463;28;20026;-78
2024/01/05 01:06:56;;;;;;;44.95;19.20;;;7.60;99.90;;;;;;4978163;28;20448;-78
2024/01/05 01:09:22;;;;;;;34.00;17.10;;;7.60;99.90;;;;;;4944789;28;20474;-79
2024/01/05 01:11:50;;;;;;;37.40;17.65;;;7.60;99.90;;;;;;4961936;28;20326;-78
2024/01/05 01:14:17;;;;;;;36.72;17.17;;;7.60;99.90;;;;;;4961577;28;20402;-78
2024/01/05 01:16:43;;;;;;;38.40;18.92;;;7.60;99.90;;;;;;4962762;28;20046;-78
2024/01/05 01:19:09;;;;;;;34.60;16.10;;;7.60;99.90;;;;;;4979598;28;20468;-77
2024/01/05 01:21:36;;;;;;;44.45;19.50;;;7.60;99.90;;;;;;4962898;28;20331;-79
2024/01/05 01:24:02;;;;;;;32.97;16.85;;;7.70;99.90;;;;;;4979235;28;20046;-76
2024/01/05 01:26:29;;;;;;;32.08;17.92;;;7.60;99.90;;;;;;4977116;28;20065;-78
2024/01/05 01:28:55;;;;;;;34.83;18.25;;;7.60;99.90;;;;;;4981003;28;20046;-78
2024/01/05 01:31:21;;;;;;;33.30;17.10;;;7.60;99.90;;;;;;4978002;28;20042;-79
2024/01/05 01:33:48;;;;;;;33.03;16.90;;;7.60;99.90;;;;;;4977893;28;20038;-77
2024/01/05 01:36:14;;;;;;;25.13;14.68;;;7.50;99.90;;;;;;4978596;28;20034;-77
2024/01/05 01:38:40;;;;;;;32.33;16.70;;;7.50;99.90;;;;;;4977378;28;20043;-79
2024/01/05 01:41:07;;;;;;;37.83;19.48;;;7.50;99.90;;;;;;4977763;28;20044;-77
2024/01/05 01:43:34;;;;;;;30.85;17.13;;;7.40;99.90;;;;;;4978225;28;20065;-78
2024/01/05 01:46:01;;;;;;;40.50;19.42;;;7.50;99.90;;;;;;4994525;28;20027;-78
2024/01/05 01:48:29;;;;;;;28.63;17.02;;;7.40;99.90;;;;;;4962557;28;20030;-78
2024/01/05 01:50:56;;;;;;;41.08;20.25;;;7.40;99.90;;;;;;4977494;28;20033;-79
2024/01/05 01:53:24;;;;;;;37.28;18.10;;;7.40;99.90;;;;;;4959281;28;20038;-77
2024/01/05 01:55:52;;;;;;;44.17;21.30;;;7.40;99.90;;;;;;4945304;28;20026;-78
2024/01/05 01:58:19;;;;;;;36.63;19.38;;;7.40;99.90;;;;;;4976952;28;20478;-76
2024/01/05 02:00:46;;;;;;;47.63;21.00;;;7.40;99.90;;;;;;4961408;28;20047;-78
2024/01/05 02:03:14;;;;;;;39.45;19.85;;;7.40;99.90;;;;;;4976963;28;20045;-79
2024/01/05 02:05:41;;;;;;;39.40;19.23;;;7.50;99.90;;;;;;4961217;28;20507;-79
2024/01/05 02:08:08;;;;;;;40.05;20.10;;;7.50;99.90;;;;;;4961246;28;20488;-78
2024/01/05 02:10:34;;;;;;;34.13;17.73;;;7.50;99.90;;;;;;4977972;28;20042;-77
2024/01/05 02:13:00;;;;;;;38.97;18.48;;;7.50;99.90;;;;;;4960364;28;20034;-78
2024/01/05 02:15:27;;;;;;;32.92;15.88;;;7.50;99.90;;;;;;4993185;28;20030;-77
2024/01/05 02:18:14;;;;;;;28.45;15.90;;;7.50;99.90;;;;;;4976380;28;20465;-78
2024/01/05 02:20:44;;;;;;;32.85;16.63;;;7.50;99.90;;;;;;4977868;28;20423;-77
2024/01/05 02:23:23;;;;;;;36.72;15.20;;;7.50;99.90;;;;;;4978546;28;20038;-77
2024/01/05 02:25:50;;;;;;;25.92;13.30;;;7.60;99.90;;;;;;4976646;28;20479;-77
2024/01/05 02:28:18;;;;;;;29.67;14.88;;;7.60;99.90;;;;;;4975630;28;20053;-78
2024/01/05 02:30:45;;;;;;;26.20;11.68;;;7.50;99.90;;;;;;4977146;28;20416;-78
2024/01/05 02:33:12;;;;;;;29.13;12.90;;;7.60;99.90;;;;;;4960094;28;20427;-78
2024/01/05 02:35:38;;;;;;;32.42;12.48;;;7.60;99.90;;;;;;4959498;28;20042;-79
2024/01/05 02:38:05;;;;;;;22.15;11.02;;;7.50;99.90;;;;;;4979004;28;20038;-79
2024/01/05 02:40:32;;;;;;;27.38;11.95;;;7.60;99.90;;;;;;4978466;28;20035;-78
2024/01/05 02:42:59;;;;;;;23.60;9.70;;;7.60;99.90;;;;;;4960674;28;20505;-78
2024/01/05 02:45:25;;;;;;;23.92;9.73;;;7.60;99.90;;;;;;4976466;28;20485;-78
2024/01/05 02:47:51;;;;;;;23.05;9.75;;;7.60;99.90;;;;;;4976761;28;20037;-77
2024/01/05 02:50:19;;;;;;;16.20;8.27;;;7.60;99.90;;;;;;4976976;28;20031;-78
2024/01/05 02:52:46;;;;;;;24.92;8.88;;;7.60;99.90;;;;;;4960354;28;20038;-77
2024/01/05 02:55:13;;;;;;;22.77;7.47;;;7.70;99.90;;;;;;4976464;28;20030;-78
2024/01/05 02:57:41;;;;;;;20.95;7.43;;;7.70;99.90;;;;;;4976412;28;20026;-78
2024/01/05 03:00:07;;;;;;;20.63;6.40;;;7.70;99.90;;;;;;4992871;28;20034;-78
2024/01/05 03:02:34;;;;;;;18.05;5.75;;;7.70;99.90;;;;;;4976251;28;20266;-78
2024/01/05 03:05:01;;;;;;;15.20;5.00;;;7.80;99.90;;;;;;4959959;28;20030;-79
2024/01/05 03:07:27;;;;;;;16.38;5.35;;;7.80;99.90;;;;;;4975441;28;20022;-77
2024/01/05 03:09:53;;;;;;;15.02;5.35;;;7.80;99.90;;;;;;4960235;28;20081;-78
2024/01/05 03:12:20;;;;;;;16.83;4.78;;;7.80;99.90;;;;;;4976422;28;20030;-78
2024/01/05 03:14:46;;;;;;;13.95;5.40;;;7.80;99.90;;;;;;4976002;28;20350;-78
2024/01/05 03:17:12;;;;;;;12.70;4.47;;;7.80;99.90;;;;;;4961491;28;20465;-78
2024/01/05 03:19:38;;;;;;;20.08;5.20;;;7.80;99.90;;;;;;4975387;28;20030;-77
2024/01/05 03:22:05;;;;;;;16.50;5.07;;;7.80;99.90;;;;;;4960223;28;20038;-78
2024/01/05 03:24:31;;;;;;;13.23;4.40;;;7.80;99.90;;;;;;4976521;28;20511;-78
2024/01/05 03:26:58;;;;;;;18.25;5.93;;;7.90;99.90;;;;;;4978179;28;20041;-79
2024/01/05 03:29:24;;;;;;;22.27;6.38;;;7.90;99.90;;;;;;4959721;28;20485;-79
2024/01/05 03:31:50;;;;;;;14.30;5.57;;;7.90;99.90;;;;;;4975196;28;20350;-77
2024/01/05 03:34:16;;;;;;;19.08;4.68;;;7.90;99.90;;;;;;4975696;28;20035;-78
2024/01/05 03:36:43;;;;;;;20.42;4.60;;;7.90;99.90;;;;;;4977085;28;20030;-79
2024/01/05 03:39:09;;;;;;;14.35;4.75;;;7.90;99.90;;;;;;4943946;28;20030;-79
2024/01/05 03:41:35;;;;;;;17.98;4.47;;;7.90;99.90;;;;;;4960383;28;20030;-78
2024/01/05 03:44:02;;;;;;;14.27;4.30;;;7.90;99.90;;;;;;4981199;28;20057;-78
2024/01/05 03:46:28;;;;;;;14.95;4.57;;;7.90;99.90;;;;;;4982553;28;20118;-79
2024/01/05 03:48:54;;;;;;;21.98;5.15;;;7.90;99.90;;;;;;4979620;28;20041;-78
2024/01/05 03:51:21;;;;;;;13.20;4.80;;;7.90;99.90;;;;;;4946535;28;20030;-78
2024/01/05 03:53:47;;;;;;;25.15;5.88;;;7.90;99.90;;;;;;4978044;28;20480;-79
2024/01/05 03:56:13;;;;;;;15.20;4.80;;;7.90;99.90;;;;;;4978926;28;20045;-76
2024/01/05 03:58:40;;;;;;;14.50;4.78;;;8.00;99.90;;;;;;4978867;28;20037;-78
2024/01/05 04:01:06;;;;;;;12.30;5.32;;;7.90;99.90;;;;;;4963397;28;20042;-78
2024/01/05 04:03:32;;;;;;;17.73;4.95;;;7.90;99.90;;;;;;4964242;28;20041;-79
2024/01/05 04:05:58;;;;;;;14.65;5.00;;;8.00;99.90;;;;;;4979472;28;20030;-79
2024/01/05 04:08:25;;;;;;;11.90;4.05;;;8.00;99.90;;;;;;4962638;28;20038;-76
2024/01/05 04:10:51;;;;;;;8.18;3.70;;;8.00;99.90;;;;;;4995451;28;20775;-79
2024/01/05 04:13:18;;;;;;;16.02;4.50;;;8.00;99.90;;;;;;4963287;28;20034;-79
2024/01/05 04:15:44;;;;;;;14.18;4.10;;;8.00;99.90;;;;;;4947078;28;20389;-78
2024/01/05 04:18:10;;;;;;;16.13;6.05;;;8.00;99.90;;;;;;4996127;28;20042;-78
2024/01/05 04:20:37;;;;;;;18.52;5.60;;;8.00;99.90;;;;;;4980123;28;20026;-77
2024/01/05 04:23:03;;;;;;;12.07;4.30;;;8.00;99.90;;;;;;4963970;28;20346;-78
2024/01/05 04:25:30;;;;;;;10.70;4.22;;;8.00;99.90;;;;;;4980449;28;20025;-78
2024/01/05 04:27:57;;;;;;;15.18;5.00;;;8.00;99.90;;;;;;4979178;28;20373;-80
2024/01/05 04:30:24;;;;;;;17.83;4.93;;;8.00;99.90;;;;;;4978364;28;20077;-78
2024/01/05 04:32:50;;;;;;;16.35;4.20;;;8.00;99.90;;;;;;4980720;28;20030;-79
2024/01/05 04:35:17;;;;;;;13.90;4.05;;;8.00;99.90;;;;;;4962646;28;20038;-79
2024/01/05 04:37:43;;;;;;;17.60;5.22;;;8.00;99.90;;;;;;4961934;28;20030;-79
2024/01/05 04:40:10;;;;;;;14.02;4.82;;;8.00;99.90;;;;;;4978270;28;20026;-80
2024/01/05 04:42:37;;;;;;;16.92;4.95;;;8.00;99.90;;;;;;4963196;28;20046;-79
2024/01/05 04:45:04;;;;;;;25.23;4.97;;;8.00;99.90;;;;;;4963373;28;20042;-79
2024/01/05 04:47:34;;;;;;;13.65;4.00;;;8.00;99.90;;;;;;4961134;28;20030;-77
2024/01/05 04:50:02;;;;;;;18.42;4.18;;;8.00;99.90;;;;;;4978304;28;20045;-79
2024/01/05 04:52:30;;;;;;;14.73;4.55;;;8.00;99.90;;;;;;4979107;28;20519;-79
2024/01/05 04:54:56;;;;;;;11.00;3.13;;;8.00;99.90;;;;;;4960783;28;20034;-79
2024/01/05 04:57:22;;;;;;;7.00;2.63;;;8.00;99.90;;;;;;4978597;28;20080;-79
2024/01/05 04:59:48;;;;;;;9.10;3.33;;;8.00;99.90;;;;;;4964091;28;20034;-79
2024/01/05 05:02:15;;;;;;;8.82;2.70;;;8.00;99.90;;;;;;4962821;28;20035;-78
2024/01/05 05:04:44;;;;;;;14.77;3.67;;;8.00;99.90;;;;;;4962565;28;20073;-77
2024/01/05 05:07:11;;;;;;;13.25;3.17;;;8.00;99.90;;;;;;4961469;28;20041;-77
2024/01/05 05:09:37;;;;;;;12.70;3.10;;;8.00;99.90;;;;;;4977568;28;20045;-78
2024/01/05 05:12:04;;;;;;;14.23;3.33;;;8.00;99.90;;;;;;4961613;28;20838;-79
2024/01/05 05:14:30;;;;;;;16.10;3.17;;;8.00;99.90;;;;;;4961339;28;20037;-79
2024/01/05 05:16:56;;;;;;;11.13;2.42;;;7.90;99.90;;;;;;4978078;28;20037;-78
2024/01/05 05:19:23;;;;;;;11.27;2.80;;;7.90;99.90;;;;;;4976597;28;20033;-78
2024/01/05 05:21:49;;;;;;;11.40;2.40;;;7.90;99.90;;;;;;4977721;28;20049;-77
2024/01/05 05:24:15;;;;;;;12.15;3.03;;;8.00;99.90;;;;;;4977436;28;20457;-79
2024/01/05 05:26:42;;;;;;;13.60;2.95;;;8.00;99.90;;;;;;4977732;28;20045;-79
2024/01/05 05:29:08;;;;;;;13.18;2.95;;;7.90;99.90;;;;;;4976896;28;20026;-79
2024/01/05 05:31:34;;;;;;;7.60;2.70;;;7.90;99.90;;;;;;4975158;28;20022;-78
2024/01/05 05:34:01;;;;;;;8.75;2.47;;;7.90;99.90;;;;;;4977224;28;20046;-79
2024/01/05 05:36:27;;;;;;;16.10;3.00;;;7.90;99.90;;;;;;4976936;28;20034;-80
2024/01/05 05:38:53;;;;;;;11.05;2.88;;;7.90;99.90;;;;;;4960944;28;20033;-79
2024/01/05 05:41:20;;;;;;;11.88;2.92;;;7.90;99.90;;;;;;4977815;28;20022;-79
2024/01/05 05:43:47;;;;;;;7.60;2.75;;;8.00;99.90;;;;;;4975454;28;20034;-79
2024/01/05 05:46:13;;;;;;;8.77;2.25;;;8.00;99.90;;;;;;4960859;28;20069;-79
2024/01/05 05:48:39;;;;;;;9.18;2.47;;;7.90;99.90;;;;;;4960853;28;20026;-79
2024/01/05 05:51:06;;;;;;;8.90;1.88;;;7.90;99.90;;;;;;4976488;28;20525;-79
2024/01/05 05:53:32;;;;;;;10.23;2.70;;;7.90;99.90;;;;;;4944740;28;20046;-76
2024/01/05 05:55:59;;;;;;;8.68;2.20;;;7.90;99.90;;;;;;4978131;28;20035;-78
2024/01/05 05:58:26;;;;;;;7.43;2.55;;;7.90;99.90;;;;;;4978524;28;20461;-79
2024/01/05 06:00:53;;;;;;;12.77;2.47;;;7.90;99.90;;;;;;4997253;28;20458;-79
2024/01/05 06:03:19;;;;;;;7.75;2.45;;;7.90;99.90;;;;;;4980470;28;20030;-78
2024/01/05 06:05:45;;;;;;;16.02;2.70;;;7.90;99.90;;;;;;4977824;28;20034;-78
2024/01/05 06:08:12;;;;;;;11.57;3.00;;;7.90;99.90;;;;;;4962337;28;20034;-78
2024/01/05 06:10:38;;;;;;;9.88;2.20;;;7.90;99.90;;;;;;4946885;28;20041;-79
2024/01/05 06:13:04;;;;;;;7.10;1.75;;;7.90;99.90;;;;;;4963136;28;20034;-80
2024/01/05 06:15:31;;;;;;;6.13;1.60;;;7.90;99.90;;;;;;4995779;28;20026;-78
2024/01/05 06:17:58;;;;;;;7.47;1.83;;;7.90;99.90;;;;;;4978233;28;20427;-78
2024/01/05 06:20:25;;;;;;;12.68;2.30;;;7.80;99.90;;;;;;4978259;28;20034;-78
2024/01/05 06:22:51;;;;;;;4.80;1.92;;;7.90;99.90;;;;;;4961413;28;20034;-78
2024/01/05 06:25:17;;;;;;;4.93;1.63;;;7.90;99.90;;;;;;4964143;28;20052;-78
2024/01/05 06:27:44;;;;;;;6.93;2.10;;;7.90;99.90;;;;;;4979006;28;20978;-78
2024/01/05 06:30:10;;;;;;;9.43;2.15;;;7.90;99.90;;;;;;4980083;28;20038;-79
2024/01/05 06:32:37;;;;;;;9.13;1.98;;;7.90;99.90;;;;;;4977422;28;20030;-79
2024/01/05 06:35:05;;;;;;;7.45;1.88;;;7.90;99.90;;;;;;4977857;28;20053;-77
2024/01/05 06:37:32;;;;;;;9.57;1.88;;;7.90;99.90;;;;;;4976913;28;20042;-78
2024/01/05 06:39:58;;;;;;;6.65;1.85;;;7.90;99.90;;;;;;4980870;28;20499;-78
2024/01/05 06:42:25;;;;;;;7.47;1.65;;;7.90;99.90;;;;;;4978221;28;20038;-77
2024/01/05 06:44:51;;;;;;;4.60;1.60;;;7.90;99.90;;;;;;4976440;28;20037;-78
2024/01/05 06:47:17;;;;;;;15.80;1.80;;;7.90;99.90;;;;;;4979520;28;20038;-79
2024/01/05 06:49:44;;;;;;;9.23;2.22;;;7.80;99.90;;;;;;4960641;28;20026;-79
2024/01/05 06:52:10;;;;;;;10.60;1.65;;;7.90;99.90;;;;;;4944486;28;20053;-78
2024/01/05 06:54:37;;;;;;;8.85;1.63;;;7.90;99.90;;;;;;4979862;28;20389;-78
2024/01/05 06:57:05;;;;;;;8.45;1.40;;;7.90;99.90;;;;;;4994726;28;20049;-79
2024/01/05 06:59:31;;;;;;;6.32;1.65;;;7.90;99.90;;;;;;4960522;28;20038;-78
2024/01/05 07:01:58;;;;;;;8.93;1.58;;;7.90;99.90;;;;;;4960565;28;20457;-78
2024/01/05 07:04:24;;;;;;;11.23;2.30;;;7.90;99.90;;;;;;4994070;28;20034;-78
2024/01/05 07:06:50;;;;;;;5.95;1.20;;;7.90;99.90;;;;;;4978079;28;20034;-78
2024/01/05 07:09:17;;;;;;;4.07;1.00;;;7.90;99.90;;;;;;4978132;28;20026;-79
2024/01/05 07:11:43;;;;;;;5.15;1.50;;;7.90;99.90;;;;;;4977372;28;20031;-78
2024/01/05 07:14:09;;;;;;;6.15;1.25;;;7.90;99.90;;;;;;4993428;28;20492;-79
2024/01/05 07:16:36;;;;;;;8.57;1.55;;;7.90;99.90;;;;;;4945965;28;20053;-78
2024/01/05 07:19:02;;;;;;;6.47;1.40;;;7.90;99.90;;;;;;4981821;28;20527;-79
2024/01/05 07:21:28;;;;;;;6.85;1.17;;;7.80;99.90;;;;;;4981063;28;20018;-80
2024/01/05 07:23:54;;;;;;;7.35;1.10;;;7.80;99.90;;;;;;4965842;28;20356;-79
2024/01/05 07:26:23;;;;;;;9.20;1.23;;;7.80;99.90;;;;;;4949076;28;20445;-79
2024/01/05 07:28:51;;;;;;;7.65;1.25;;;7.80;99.90;;;;;;4965282;28;20053;-79
2024/01/05 07:31:23;;;;;;;5.55;1.45;;;7.90;99.90;;;;;;4963296;28;20385;-79
2024/01/05 07:33:51;;;;;;;7.25;1.23;;;7.80;99.90;;;;;;4966054;28;20381;-78
2024/01/05 07:36:18;;;;;;;6.97;1.30;;;7.80;99.90;;;;;;4963921;28;20089;-80
2024/01/05 07:38:44;;;;;;;9.07;1.65;;;7.80;99.90;;;;;;4982331;28;20572;-80
2024/01/05 07:41:18;;;;;;;9.80;1.52;;;7.80;99.90;;;;;;4983078;28;20059;-76
2024/01/05 07:43:44;;;;;;;5.85;1.33;;;7.90;99.90;;;;;;4981319;28;20381;-80
2024/01/05 07:46:10;;;;;;;5.50;1.33;;;7.80;99.90;;;;;;4965208;28;20025;-78
2024/01/05 07:48:40;;;;;;;7.90;1.50;;;7.80;99.90;;;;;;4981581;28;20373;-79
2024/01/05 07:51:07;;;;;;;11.90;1.67;;;7.80;99.90;;;;;;4982052;28;20030;-78
2024/01/05 07:53:34;;;;;;;7.70;1.50;;;7.90;99.90;;;;;;4982809;28;20030;-78
2024/01/05 07:56:04;;;;;;;4.28;0.98;;;7.90;99.90;;;;;;4982298;28;20042;-77
2024/01/05 07:58:31;;;;;;;4.13;1.00;;;7.80;99.90;;;;;;4997403;28;20030;-78
2024/01/05 08:00:57;;;;;;;5.07;0.77;;;7.80;99.90;;;;;;4981651;28;20037;-78
2024/01/05 08:03:23;;;;;;;5.75;0.80;;;7.80;99.90;;;;;;4964194;28;20404;-78
2024/01/05 08:05:50;;;;;;;5.72;1.08;;;7.70;99.90;;;;;;4949010;28;20511;-78
2024/01/05 08:08:16;;;;;;;2.45;0.47;;;7.70;99.90;;;;;;4981252;28;20026;-78
2024/01/05 08:10:42;;;;;;;3.58;0.50;;;7.70;99.90;;;;;;4964156;28;20114;-76
2024/01/05 08:13:09;;;;;;;3.40;0.40;;;7.70;99.90;;;;;;4980399;28;20026;-77
2024/01/05 08:15:35;;;;;;;1.88;0.38;;;7.60;99.90;;;;;;4980427;28;20046;-77
2024/01/05 08:18:11;;;;;;;1.75;0.43;;;7.60;99.90;;;;;;4950163;28;20397;-78
2024/01/05 08:20:37;;;;;;;1.30;0.35;;;7.60;99.90;;;;;;4982550;28;20045;-79
2024/01/05 08:23:03;;;;;;;1.75;0.85;;;7.60;99.90;;;;;;4962618;28;20026;-78
2024/01/05 08:25:30;;;;;;;2.72;0.40;;;7.60;99.90;;;;;;4979301;28;20184;-79
2024/01/05 08:27:56;;;;;;;1.80;0.50;;;7.50;99.90;;;;;;4978185;28;20036;-78
2024/01/05 08:30:22;;;;;;;1.20;0.38;;;7.50;99.90;;;;;;4979533;28;20033;-77
2024/01/05 08:32:54;;;;;;;1.98;0.50;;;7.50;99.90;;;;;;4982846;28;20038;-78
2024/01/05 08:35:21;;;;;;;1.20;0.50;;;7.50;99.90;;;;;;4980762;28;20042;-79
2024/01/05 08:37:47;;;;;;;0.90;0.50;;;7.50;99.90;;;;;;4980784;28;20030;-79
2024/01/05 08:40:14;;;;;;;1.10;0.35;;;7.50;99.90;;;;;;4965060;28;20366;-80
2024/01/05 08:42:41;;;;;;;0.60;0.30;;;7.50;99.90;;;;;;4979103;28;20045;-79
2024/01/05 08:45:08;;;;;;;1.75;0.57;;;7.50;99.90;;;;;;4979764;28;20034;-78
2024/01/05 08:47:41;;;;;;;1.30;0.30;;;7.50;99.90;;;;;;4965765;28;20030;-76
2024/01/05 08:50:08;;;;;;;1.65;0.50;;;7.40;99.90;;;;;;4996746;28;20414;-78
2024/01/05 08:52:35;;;;;;;2.90;0.50;;;7.40;99.90;;;;;;4964873;28;20042;-78
2024/01/05 08:55:01;;;;;;;3.55;0.60;;;7.40;99.90;;;;;;4978912;28;20042;-77
2024/01/05 08:57:28;;;;;;;0.90;0.40;;;7.40;99.90;;;;;;4982538;28;20034;-78
2024/01/05 08:59:54;;;;;;;0.60;0.30;;;7.40;99.90;;;;;;4979899;28;20508;-76
2024/01/05 09:02:22;;;;;;;1.42;0.50;;;7.40;99.90;;;;;;4979652;28;20050;-79
2024/01/05 09:04:48;;;;;;;1.17;0.30;;;7.30;99.90;;;;;;4980963;28;20385;-79
2024/01/05 09:07:15;;;;;;;0.90;0.40;;;7.30;99.90;;;;;;4980309;28;20037;-76
2024/01/05 09:09:41;;;;;;;1.08;0.40;;;7.30;99.90;;;;;;4963965;28;20033;-77
2024/01/05 09:12:08;;;;;;;2.42;0.50;;;7.20;99.90;;;;;;4946724;28;20039;-78
2024/01/05 09:14:37;;;;;;;1.35;0.47;;;7.20;99.90;;;;;;4979739;28;20035;-78
2024/01/05 09:17:06;;;;;;;0.70;0.30;;;7.20;99.90;;;;;;4964369;28;20680;-78
2024/01/05 09:19:33;;;;;;;1.90;0.40;;;7.20;99.90;;;;;;4978542;28;20034;-76
2024/01/05 09:21:59;;;;;;;1.85;0.47;;;7.20;99.90;;;;;;4979125;28;20058;-77
2024/01/05 09:24:28;;;;;;;1.50;0.40;;;7.20;99.90;;;;;;4979399;28;20485;-78
2024/01/05 09:26:55;;;;;;;1.00;0.35;;;7.10;99.90;;;;;;4962941;28;20389;-76
2024/01/05 09:29:22;;;;;;;2.25;0.50;;;7.10;99.90;;;;;;4962034;28;20034;-78
2024/01/05 09:31:48;;;;;;;2.25;0.40;;;7.10;99.90;;;;;;4962101;28;20405;-77
2024/01/05 09:34:15;;;;;;;2.38;0.45;;;7.10;99.90;;;;;;4960067;28;20529;-78
2024/01/05 09:36:41;;;;;;;1.88;0.63;;;7.10;99.90;;;;;;4944533;28;20704;-77
2024/01/05 09:39:28;;;;;;;2.22;0.40;;;7.10;99.90;;;;;;4977729;28;20599;-78
2024/01/05 09:42:15;;;;;;;1.52;0.50;;;7.10;99.90;;;;;;4978665;28;20807;-78
2024/01/05 09:45:02;;;;;;;0.93;0.30;;;7.10;99.90;;;;;;4978775;28;20034;-79
2024/01/05 09:47:50;;;;;;;2.28;0.45;;;7.00;99.90;;;;;;4978251;28;20076;-82
2024/01/05 09:50:36;;;;;;;1.00;0.50;;;7.00;99.90;;;;;;4969644;28;20034;-80
2024/01/05 09:53:23;;;;;;;1.05;0.50;;;7.00;99.90;;;;;;4982509;28;20049;-82
2024/01/05 09:56:10;;;;;;;1.50;0.50;;;7.00;99.90;;;;;;4970635;28;20041;-81
2024/01/05 09:58:56;;;;;;;1.02;0.50;;;7.00;99.90;;;;;;4981133;28;20034;-81
2024/01/05 10:01:43;;;;;;;1.45;0.80;;;7.00;99.90;;;;;;4962696;28;20038;-77
2024/01/05 10:04:30;;;;;;;1.10;0.70;;;7.00;99.90;;;;;;4975719;28;20045;-78
2024/01/05 10:07:16;;;;;;;1.27;0.73;;;7.00;99.90;;;;;;4978146;28;20034;-86
2024/01/05 10:10:02;;;;;;;1.10;0.40;;;7.00;99.90;;;;;;4975983;28;20042;-80
2024/01/05 10:12:49;;;;;;;1.30;0.50;;;6.90;99.90;;;;;;4978999;28;20040;-79
2024/01/05 10:15:35;;;;;;;1.75;0.50;;;6.90;99.90;;;;;;4976359;28;20057;-77
2024/01/05 10:18:23;;;;;;;1.10;0.40;;;6.90;99.90;;;;;;4978592;28;20339;-77
2024/01/05 10:21:10;;;;;;;0.95;0.20;;;6.80;99.90;;;;;;4963725;28;20045;-78
2024/01/05 10:23:57;;;;;;;1.50;0.25;;;6.80;99.90;;;;;;4964778;28;20052;-78
2024/01/05 10:26:43;;;;;;;0.43;0.30;;;6.80;99.90;;;;;;4975456;28;20057;-78
2024/01/05 10:29:30;;;;;;;1.38;0.60;;;6.80;99.90;;;;;;4963202;28;20385;-77
2024/01/05 10:32:19;;;;;;;1.67;0.70;;;6.80;99.90;;;;;;4977262;28;20042;-77
2024/01/05 10:35:08;;;;;;;1.52;0.70;;;6.80;99.90;;;;;;4978748;28;20046;-76
2024/01/05 10:38:13;;;;;;;2.08;0.80;;;6.70;99.90;;;;;;4975670;28;20421;-77
2024/01/05 10:41:06;;;;;;;2.25;0.90;;;6.70;99.90;;;;;;4976906;28;20034;-77
2024/01/05 10:43:55;;;;;;;2.75;0.88;;;6.70;99.90;;;;;;4963092;28;20034;-77
2024/01/05 10:46:42;;;;;;;2.42;1.00;;;6.60;99.90;;;;;;4975766;28;20030;-77
2024/01/05 10:49:30;;;;;;;1.45;1.10;;;6.70;99.90;;;;;;4977449;28;20737;-77
2024/01/05 10:52:23;;;;;;;3.33;1.30;;;6.60;99.90;;;;;;4990079;28;20034;-75
2024/01/05 10:55:10;;;;;;;;;;;6.70;99.90;;;;;;4962713;28;20053;-77
2024/01/05 10:57:56;;;;;;;2.08;1.33;;;6.70;99.90;;;;;;4948790;28;19921;-77
2024/01/05 11:00:44;;;;;;;3.08;1.65;;;6.70;99.90;;;;;;4962464;28;20042;-77
2024/01/05 11:03:38;;;;;;;2.97;1.83;;;6.70;99.90;;;;;;4961589;28;20071;-77
2024/01/05 11:06:25;;;;;;;3.17;1.98;;;6.70;99.90;;;;;;4963640;28;20064;-77
2024/01/05 11:09:37;;;;;;;3.90;1.70;;;6.70;99.90;;;;;;4976802;28;20039;-77
2024/01/05 11:12:36;;;;;;;3.95;1.77;;;6.70;99.90;;;;;;4961892;28;20037;-77
2024/01/05 11:15:32;;;;;;;3.60;2.00;;;6.80;99.90;;;;;;4954269;28;20134;-76
2024/01/05 11:18:45;;;;;;;3.63;2.22;;;6.70;99.90;;;;;;4968486;28;20687;-76
2024/01/05 11:21:34;;;;;;;2.22;1.80;;;6.80;99.90;;;;;;4974224;28;20046;-76
2024/01/05 11:24:22;;;;;;;2.25;1.38;;;6.80;99.90;;;;;;4958965;28;20868;-78
2024/01/05 11:27:33;;;;;;;4.20;3.00;;;6.80;99.90;;;;;;4974483;28;20242;-77
2024/01/05 11:30:40;;;;;;;3.83;2.22;;;6.80;99.90;;;;;;4959555;28;20701;-75
2024/01/05 11:33:44;;;;;;;5.35;3.85;;;6.90;99.90;;;;;;4971716;28;20042;-77
2024/01/05 11:36:49;;;;;;;4.60;3.00;;;6.80;99.90;;;;;;4949003;28;20043;-76
2024/01/05 11:39:48;;;;;;;4.70;4.13;;;6.90;99.90;;;;;;4972626;28;20034;-75
2024/01/05 11:42:35;;;;;;;5.60;5.00;;;6.90;99.90;;;;;;4960463;28;20042;-83
2024/01/05 11:45:44;;;;;;;9.32;5.90;;;6.90;99.90;;;;;;4961285;28;20054;-76
2024/01/05 11:48:33;;;;;;;3.30;2.67;;;6.90;99.90;;;;;;4970325;28;20042;-76
2024/01/05 11:51:19;;;;;;;5.32;2.80;;;6.90;99.90;;;;;;4973934;28;20053;-75
2024/01/05 11:54:06;;;;;;;7.70;3.38;;;6.90;99.90;;;;;;4960978;28;20034;-78
2024/01/05 11:56:59;;;;;;;4.50;3.20;;;6.90;99.90;;;;;;4958035;28;20409;-75
2024/01/05 11:59:54;;;;;;;4.50;2.88;;;6.80;99.90;;;;;;4959078;28;20039;-77
2024/01/05 12:02:40;;;;;;;4.07;3.15;;;6.80;99.90;;;;;;4958591;28;20516;-78
2024/01/05 12:05:26;;;;;;;3.28;2.35;;;6.80;99.90;;;;;;4973787;28;20382;-76
2024/01/05 12:08:14;;;;;;;6.13;3.40;;;6.90;99.90;;;;;;4973239;28;20036;-78
2024/01/05 12:11:03;;;;;;;4.72;3.50;;;6.90;99.90;;;;;;4960089;28;20920;-79
2024/01/05 12:13:49;;;;;;;4.88;3.22;;;6.90;99.90;;;;;;4961858;28;20042;-76
2024/01/05 12:16:36;;;;;;;3.97;3.10;;;7.00;99.90;;;;;;4946989;28;20505;-77
2024/01/05 12:19:22;;;;;;;3.30;2.70;;;7.00;99.90;;;;;;4972762;28;20038;-76
2024/01/05 12:22:08;;;;;;;5.68;3.70;;;7.00;99.90;;;;;;4959324;28;20397;-77
2024/01/05 12:25:04;;;;;;;5.82;3.28;;;7.00;99.90;;;;;;4961321;28;20057;-76
2024/01/05 12:27:51;;;;;;;4.18;3.40;;;7.00;99.90;;;;;;4962434;28;20049;-76
2024/01/05 12:30:37;;;;;;;3.95;3.08;;;7.00;99.90;;;;;;4990225;28;20034;-78
2024/01/05 12:33:25;;;;;;;3.47;2.40;;;7.00;99.90;;;;;;4962481;28;20054;-77
2024/01/05 12:36:23;;;;;;;4.18;2.80;;;7.00;99.90;;;;;;4960335;28;20053;-76
2024/01/05 12:39:10;;;;;;;5.38;2.92;;;7.10;99.90;;;;;;4974740;28;20026;-78
2024/01/05 12:41:56;;;;;;;3.50;2.70;;;7.00;99.90;;;;;;4975361;28;20041;-76
2024/01/05 12:44:44;;;;;;;2.30;2.10;;;7.00;99.90;;;;;;4961044;28;20061;-75
2024/01/05 12:47:33;;;;;;;5.90;3.25;;;7.00;99.90;;;;;;4945692;28;20371;-77
2024/01/05 12:50:23;;;;;;;4.80;3.38;;;7.00;99.90;;;;;;4961690;28;20431;-77
2024/01/05 12:53:20;;;;;;;3.78;3.33;;;7.00;99.90;;;;;;4963811;28;20022;-77
2024/01/05 12:56:12;;;;;;;4.80;3.40;;;7.00;99.90;;;;;;4964010;28;20042;-77
2024/01/05 12:58:59;;;;;;;3.97;2.93;;;7.00;99.90;;;;;;4953150;28;20042;-76
2024/01/05 13:01:45;;;;;;;5.07;3.83;;;7.00;99.90;;;;;;4985193;28;20277;-76
2024/01/05 13:04:36;;;;;;;5.35;3.20;;;7.00;99.90;;;;;;4976648;28;20046;-77
2024/01/05 13:07:22;;;;;;;4.53;3.67;;;7.10;99.90;;;;;;4961544;28;20037;-77
2024/01/05 13:10:09;;;;;;;5.00;3.70;;;7.10;99.90;;;;;;4976608;28;20174;-76
2024/01/05 13:12:56;;;;;;;4.30;3.33;;;7.10;99.90;;;;;;4961434;28;20034;-77
2024/01/05 13:15:42;;;;;;;6.55;3.72;;;7.00;99.90;;;;;;4974728;28;20584;-77
2024/01/05 13:18:28;;;;;;;7.15;3.55;;;7.10;99.90;;;;;;4961657;28;20042;-78